PLF101 EPKT-EPSC
Flight info
| Callsign | PLF101 |
|---|---|
| Flight time | 0h 47m |
| Altitude | 26000 |
| Route | LUMVE L619 DENKO L996 XERBI DCT FORFE DCT ZAWIK |
| Aircraft | B738/M-SDE2E3FGHIRWXY/LB1 |
Departure
| Time | 2026-04-29 16:44 |
|---|---|
| Airport | Katowice Wojciech Korfanty International Airport (EPKT) |
Arrival
| Time | 2026-04-29 17:32 |
|---|---|
| Airport | Solidarity Szczecin–Goleniów Airport (EPSC) |
| Time | Latitude | Longitude | Altitude | Speed | Heading |
|---|---|---|---|---|---|
| 2026-04-29 16:16 | 50.47148 | 19.07759 | 983 ft | 0 kts | 180° |
| 2026-04-29 16:34 | 50.47154 | 19.07759 | 983 ft | 2 kts | 180° |
| 2026-04-29 16:34 | 50.47169 | 19.07759 | 983 ft | 2 kts | 180° |
| 2026-04-29 16:34 | 50.47184 | 19.07759 | 983 ft | 2 kts | 180° |
| 2026-04-29 16:35 | 50.47199 | 19.07759 | 983 ft | 2 kts | 180° |
| 2026-04-29 16:35 | 50.47214 | 19.07762 | 983 ft | 2 kts | 205° |
| 2026-04-29 16:35 | 50.47226 | 19.07776 | 983 ft | 2 kts | 229° |
| 2026-04-29 16:35 | 50.47234 | 19.07796 | 983 ft | 2 kts | 253° |
| 2026-04-29 16:36 | 50.47235 | 19.07811 | 983 ft | 0 kts | 269° |
| 2026-04-29 16:36 | 50.47235 | 19.07820 | 983 ft | 0 kts | 271° |
| 2026-04-29 16:38 | 50.47235 | 19.07816 | 983 ft | 1 kts | 271° |
| 2026-04-29 16:39 | 50.47236 | 19.07792 | 983 ft | 2 kts | 272° |
| 2026-04-29 16:39 | 50.47236 | 19.07750 | 983 ft | 5 kts | 270° |
| 2026-04-29 16:39 | 50.47236 | 19.07679 | 983 ft | 7 kts | 270° |
| 2026-04-29 16:39 | 50.47236 | 19.07582 | 983 ft | 9 kts | 270° |
| 2026-04-29 16:40 | 50.47236 | 19.07472 | 982 ft | 7 kts | 274° |
| 2026-04-29 16:40 | 50.47287 | 19.07439 | 982 ft | 10 kts | 0° |
| 2026-04-29 16:40 | 50.47366 | 19.07441 | 982 ft | 12 kts | 1° |
| 2026-04-29 16:40 | 50.47427 | 19.07367 | 980 ft | 16 kts | 273° |
| 2026-04-29 16:41 | 50.47428 | 19.07135 | 978 ft | 25 kts | 269° |
| 2026-04-29 16:41 | 50.47429 | 19.06821 | 974 ft | 31 kts | 269° |
| 2026-04-29 16:41 | 50.47429 | 19.06492 | 974 ft | 29 kts | 270° |
| 2026-04-29 16:41 | 50.47429 | 19.06175 | 971 ft | 28 kts | 270° |
| 2026-04-29 16:42 | 50.47464 | 19.05985 | 970 ft | 16 kts | 340° |
| 2026-04-29 16:42 | 50.47577 | 19.05982 | 968 ft | 12 kts | 1° |
| 2026-04-29 16:42 | 50.47603 | 19.06001 | 968 ft | 0 kts | 73° |
| 2026-04-29 16:43 | 50.47603 | 19.06004 | 968 ft | 0 kts | 87° |
| 2026-04-29 16:44 | 50.47604 | 19.06020 | 968 ft | 9 kts | 89° |
| 2026-04-29 16:44 | 50.47605 | 19.06665 | 971 ft | 107 kts | 89° |
| 2026-04-29 16:44 | 50.47593 | 19.08211 | 1274 ft | 161 kts | 86° |
| 2026-04-29 16:44 | 50.47551 | 19.09891 | 2372 ft | 157 kts | 86° |
| 2026-04-29 16:45 | 50.47525 | 19.11533 | 3281 ft | 156 kts | 84° |
| 2026-04-29 16:45 | 50.47538 | 19.13235 | 4030 ft | 165 kts | 84° |
| 2026-04-29 16:45 | 50.47551 | 19.15105 | 4681 ft | 183 kts | 85° |
| 2026-04-29 16:45 | 50.47571 | 19.17221 | 5326 ft | 203 kts | 80° |
| 2026-04-29 16:46 | 50.47994 | 19.19338 | 6132 ft | 211 kts | 56° |
| 2026-04-29 16:46 | 50.48982 | 19.21050 | 6875 ft | 225 kts | 37° |
| 2026-04-29 16:46 | 50.50366 | 19.22164 | 7826 ft | 232 kts | 14° |
| 2026-04-29 16:46 | 50.51970 | 19.22359 | 8895 ft | 235 kts | 0° |
| 2026-04-29 16:47 | 50.53592 | 19.22282 | 9896 ft | 240 kts | 0° |
| 2026-04-29 16:47 | 50.55238 | 19.22231 | 10924 ft | 242 kts | 1° |
| 2026-04-29 16:47 | 50.56920 | 19.22222 | 11920 ft | 245 kts | 2° |
| 2026-04-29 16:47 | 50.58607 | 19.22233 | 12893 ft | 248 kts | 2° |
| 2026-04-29 16:48 | 50.60349 | 19.22020 | 13624 ft | 263 kts | 347° |
| 2026-04-29 16:48 | 50.62009 | 19.20610 | 14262 ft | 284 kts | 326° |
| 2026-04-29 16:48 | 50.63530 | 19.18527 | 14870 ft | 301 kts | 322° |
| 2026-04-29 16:48 | 50.65107 | 19.16263 | 15433 ft | 317 kts | 323° |
| 2026-04-29 16:49 | 50.66811 | 19.13941 | 16014 ft | 331 kts | 324° |
| 2026-04-29 16:49 | 50.68592 | 19.11621 | 16770 ft | 338 kts | 326° |
| 2026-04-29 16:49 | 50.70424 | 19.09283 | 17653 ft | 342 kts | 326° |
| 2026-04-29 16:49 | 50.72282 | 19.06931 | 18513 ft | 345 kts | 327° |
| 2026-04-29 16:50 | 50.74160 | 19.04555 | 19386 ft | 348 kts | 327° |
| 2026-04-29 16:50 | 50.76033 | 19.02182 | 20120 ft | 354 kts | 327° |
| 2026-04-29 16:50 | 50.77965 | 18.99726 | 20923 ft | 357 kts | 327° |
| 2026-04-29 16:50 | 50.79899 | 18.97263 | 21697 ft | 360 kts | 327° |
| 2026-04-29 16:51 | 50.81850 | 18.94772 | 22420 ft | 364 kts | 327° |
| 2026-04-29 16:51 | 50.83819 | 18.92257 | 23045 ft | 370 kts | 327° |
| 2026-04-29 16:51 | 50.85817 | 18.89702 | 23729 ft | 374 kts | 327° |
| 2026-04-29 16:51 | 50.87857 | 18.87088 | 24406 ft | 378 kts | 327° |
| 2026-04-29 16:52 | 50.89914 | 18.84450 | 24995 ft | 382 kts | 327° |
| 2026-04-29 16:52 | 50.91942 | 18.81842 | 25664 ft | 382 kts | 327° |
| 2026-04-29 16:52 | 50.94016 | 18.79171 | 26099 ft | 385 kts | 327° |
| 2026-04-29 16:52 | 50.96080 | 18.76508 | 26310 ft | 382 kts | 327° |
| 2026-04-29 16:53 | 50.98143 | 18.73842 | 26367 ft | 380 kts | 327° |
| 2026-04-29 16:53 | 51.00171 | 18.71219 | 26376 ft | 378 kts | 327° |
| 2026-04-29 16:53 | 51.02210 | 18.68581 | 26375 ft | 377 kts | 327° |
| 2026-04-29 16:53 | 51.04217 | 18.65983 | 26377 ft | 378 kts | 328° |
| 2026-04-29 16:54 | 51.06248 | 18.63351 | 26384 ft | 378 kts | 327° |
| 2026-04-29 16:54 | 51.08299 | 18.60691 | 26380 ft | 377 kts | 328° |
| 2026-04-29 16:54 | 51.10327 | 18.58056 | 26375 ft | 378 kts | 328° |
| 2026-04-29 16:54 | 51.12358 | 18.55417 | 26382 ft | 376 kts | 328° |
| 2026-04-29 16:55 | 51.14380 | 18.52784 | 26384 ft | 376 kts | 328° |
| 2026-04-29 16:55 | 51.16403 | 18.50149 | 26391 ft | 378 kts | 328° |
| 2026-04-29 16:55 | 51.18415 | 18.47524 | 26375 ft | 377 kts | 328° |
| 2026-04-29 16:55 | 51.20435 | 18.44885 | 26382 ft | 376 kts | 328° |
| 2026-04-29 16:56 | 51.22471 | 18.42223 | 26379 ft | 378 kts | 328° |
| 2026-04-29 16:56 | 51.24474 | 18.39601 | 26383 ft | 377 kts | 328° |
| 2026-04-29 16:56 | 51.26520 | 18.36919 | 26388 ft | 376 kts | 328° |
| 2026-04-29 16:56 | 51.28536 | 18.34275 | 26383 ft | 378 kts | 327° |
| 2026-04-29 16:57 | 51.30547 | 18.31632 | 26379 ft | 378 kts | 327° |
| 2026-04-29 16:57 | 51.32568 | 18.28972 | 26385 ft | 376 kts | 327° |
| 2026-04-29 16:57 | 51.34602 | 18.26295 | 26388 ft | 378 kts | 328° |
| 2026-04-29 16:57 | 51.36613 | 18.23642 | 26381 ft | 376 kts | 327° |
| 2026-04-29 16:58 | 51.38623 | 18.20987 | 26387 ft | 376 kts | 328° |
| 2026-04-29 16:58 | 51.40653 | 18.18304 | 26390 ft | 377 kts | 328° |
| 2026-04-29 16:58 | 51.42665 | 18.15643 | 26387 ft | 377 kts | 328° |
| 2026-04-29 16:58 | 51.44679 | 18.12976 | 26384 ft | 378 kts | 328° |
| 2026-04-29 16:59 | 51.46691 | 18.10308 | 26386 ft | 376 kts | 328° |
| 2026-04-29 16:59 | 51.48703 | 18.07634 | 26391 ft | 377 kts | 328° |
| 2026-04-29 16:59 | 51.50722 | 18.04952 | 26393 ft | 377 kts | 328° |
| 2026-04-29 16:59 | 51.52748 | 18.02253 | 26393 ft | 376 kts | 328° |
| 2026-04-29 17:00 | 51.54762 | 17.99570 | 26399 ft | 379 kts | 328° |
| 2026-04-29 17:00 | 51.56775 | 17.96884 | 26400 ft | 377 kts | 328° |
| 2026-04-29 17:00 | 51.58775 | 17.94210 | 26396 ft | 376 kts | 328° |
| 2026-04-29 17:00 | 51.60780 | 17.91528 | 26397 ft | 378 kts | 328° |
| 2026-04-29 17:01 | 51.62795 | 17.88830 | 26402 ft | 376 kts | 328° |
| 2026-04-29 17:01 | 51.64810 | 17.86129 | 26400 ft | 377 kts | 328° |
| 2026-04-29 17:01 | 51.66819 | 17.83431 | 26402 ft | 376 kts | 328° |
| 2026-04-29 17:01 | 51.68824 | 17.80739 | 26398 ft | 379 kts | 328° |
| 2026-04-29 17:02 | 51.70853 | 17.78008 | 26394 ft | 376 kts | 328° |
| 2026-04-29 17:02 | 51.72834 | 17.75337 | 26397 ft | 376 kts | 328° |
| 2026-04-29 17:02 | 51.74860 | 17.72607 | 26399 ft | 379 kts | 328° |
| 2026-04-29 17:02 | 51.76872 | 17.69890 | 26393 ft | 376 kts | 328° |
| 2026-04-29 17:03 | 51.78854 | 17.67208 | 26402 ft | 378 kts | 328° |
| 2026-04-29 17:03 | 51.80868 | 17.64485 | 26402 ft | 377 kts | 328° |
| 2026-04-29 17:03 | 51.82875 | 17.61767 | 26398 ft | 377 kts | 329° |
| 2026-04-29 17:03 | 51.84890 | 17.59033 | 26406 ft | 377 kts | 329° |
| 2026-04-29 17:04 | 51.86861 | 17.56353 | 26404 ft | 375 kts | 329° |
| 2026-04-29 17:04 | 51.88879 | 17.53609 | 26404 ft | 377 kts | 329° |
| 2026-04-29 17:04 | 51.90854 | 17.50921 | 26403 ft | 375 kts | 329° |
| 2026-04-29 17:04 | 51.92860 | 17.48186 | 26406 ft | 377 kts | 329° |
| 2026-04-29 17:05 | 51.94846 | 17.45477 | 26405 ft | 377 kts | 329° |
| 2026-04-29 17:05 | 51.96869 | 17.42712 | 26403 ft | 377 kts | 329° |
| 2026-04-29 17:05 | 51.98869 | 17.39976 | 26402 ft | 378 kts | 329° |
| 2026-04-29 17:05 | 52.00874 | 17.37228 | 26399 ft | 375 kts | 329° |
| 2026-04-29 17:06 | 52.02858 | 17.34504 | 26403 ft | 375 kts | 328° |
| 2026-04-29 17:06 | 52.04845 | 17.31778 | 26390 ft | 378 kts | 328° |
| 2026-04-29 17:06 | 52.06853 | 17.29023 | 26383 ft | 377 kts | 328° |
| 2026-04-29 17:06 | 52.08850 | 17.26273 | 26385 ft | 376 kts | 329° |
| 2026-04-29 17:07 | 52.10823 | 17.23551 | 26389 ft | 376 kts | 329° |
| 2026-04-29 17:07 | 52.12823 | 17.20792 | 26389 ft | 376 kts | 329° |
| 2026-04-29 17:07 | 52.14805 | 17.18057 | 26391 ft | 376 kts | 329° |
| 2026-04-29 17:07 | 52.16791 | 17.15309 | 26385 ft | 377 kts | 329° |
| 2026-04-29 17:08 | 52.18781 | 17.12550 | 26399 ft | 374 kts | 329° |
| 2026-04-29 17:08 | 52.20768 | 17.09793 | 26389 ft | 374 kts | 329° |
| 2026-04-29 17:08 | 52.22741 | 17.07052 | 26391 ft | 376 kts | 329° |
| 2026-04-29 17:08 | 52.24721 | 17.04304 | 26399 ft | 375 kts | 329° |
| 2026-04-29 17:09 | 52.26697 | 17.01552 | 26396 ft | 375 kts | 329° |
| 2026-04-29 17:09 | 52.28688 | 16.98782 | 26397 ft | 376 kts | 329° |
| 2026-04-29 17:09 | 52.30677 | 16.96003 | 26405 ft | 373 kts | 329° |
| 2026-04-29 17:09 | 52.32633 | 16.93272 | 26393 ft | 374 kts | 329° |
| 2026-04-29 17:10 | 52.34610 | 16.90504 | 26404 ft | 372 kts | 329° |
| 2026-04-29 17:10 | 52.36586 | 16.87742 | 26410 ft | 375 kts | 329° |
| 2026-04-29 17:10 | 52.38546 | 16.84995 | 26412 ft | 373 kts | 330° |
| 2026-04-29 17:10 | 52.40509 | 16.82243 | 26406 ft | 375 kts | 330° |
| 2026-04-29 17:11 | 52.42473 | 16.79479 | 26409 ft | 373 kts | 330° |
| 2026-04-29 17:11 | 52.44455 | 16.76691 | 26404 ft | 374 kts | 330° |
| 2026-04-29 17:11 | 52.46402 | 16.73949 | 26409 ft | 374 kts | 330° |
| 2026-04-29 17:11 | 52.48392 | 16.71146 | 26416 ft | 376 kts | 330° |
| 2026-04-29 17:12 | 52.50351 | 16.68378 | 26410 ft | 372 kts | 330° |
| 2026-04-29 17:12 | 52.52317 | 16.65596 | 26413 ft | 372 kts | 329° |
| 2026-04-29 17:12 | 52.54266 | 16.62837 | 26414 ft | 374 kts | 330° |
| 2026-04-29 17:12 | 52.55584 | 16.60970 | 26410 ft | 374 kts | 330° |
| 2026-04-29 17:13 | 52.58189 | 16.57277 | 26419 ft | 373 kts | 330° |
| 2026-04-29 17:13 | 52.60164 | 16.54472 | 26410 ft | 374 kts | 330° |
| 2026-04-29 17:13 | 52.62108 | 16.51706 | 26318 ft | 375 kts | 330° |
| 2026-04-29 17:13 | 52.64083 | 16.48896 | 26056 ft | 373 kts | 330° |
| 2026-04-29 17:14 | 52.66004 | 16.46143 | 25785 ft | 367 kts | 330° |
| 2026-04-29 17:14 | 52.67924 | 16.43393 | 25531 ft | 367 kts | 330° |
| 2026-04-29 17:14 | 52.69836 | 16.40658 | 25276 ft | 366 kts | 330° |
| 2026-04-29 17:14 | 52.71761 | 16.37905 | 25009 ft | 364 kts | 329° |
| 2026-04-29 17:15 | 52.73666 | 16.35175 | 24731 ft | 361 kts | 329° |
| 2026-04-29 17:15 | 52.75532 | 16.32497 | 24480 ft | 360 kts | 329° |
| 2026-04-29 17:15 | 52.77431 | 16.29776 | 24212 ft | 361 kts | 329° |
| 2026-04-29 17:15 | 52.79328 | 16.27056 | 23953 ft | 359 kts | 328° |
| 2026-04-29 17:16 | 52.81163 | 16.24404 | 23606 ft | 350 kts | 328° |
| 2026-04-29 17:16 | 52.82974 | 16.21781 | 23159 ft | 344 kts | 328° |
| 2026-04-29 17:16 | 52.84757 | 16.19202 | 22666 ft | 340 kts | 328° |
| 2026-04-29 17:16 | 52.86530 | 16.16641 | 22174 ft | 336 kts | 328° |
| 2026-04-29 17:17 | 52.88265 | 16.14132 | 21675 ft | 333 kts | 328° |
| 2026-04-29 17:17 | 52.89981 | 16.11651 | 21191 ft | 329 kts | 328° |
| 2026-04-29 17:17 | 52.91698 | 16.09165 | 20706 ft | 326 kts | 327° |
| 2026-04-29 17:17 | 52.93391 | 16.06713 | 20225 ft | 323 kts | 327° |
| 2026-04-29 17:18 | 52.95041 | 16.04319 | 19747 ft | 320 kts | 327° |
| 2026-04-29 17:18 | 52.96722 | 16.01880 | 19286 ft | 324 kts | 326° |
| 2026-04-29 17:18 | 52.98441 | 15.99397 | 18791 ft | 333 kts | 326° |
| 2026-04-29 17:18 | 53.00159 | 15.96901 | 18307 ft | 331 kts | 326° |
| 2026-04-29 17:19 | 53.01882 | 15.94379 | 17815 ft | 327 kts | 326° |
| 2026-04-29 17:19 | 53.03558 | 15.91919 | 17330 ft | 322 kts | 326° |
| 2026-04-29 17:19 | 53.05216 | 15.89486 | 16846 ft | 318 kts | 326° |
| 2026-04-29 17:19 | 53.06863 | 15.87072 | 16377 ft | 315 kts | 326° |
| 2026-04-29 17:20 | 53.08483 | 15.84698 | 15915 ft | 311 kts | 326° |
| 2026-04-29 17:20 | 53.10092 | 15.82337 | 15448 ft | 307 kts | 326° |
| 2026-04-29 17:20 | 53.11699 | 15.79978 | 14980 ft | 305 kts | 326° |
| 2026-04-29 17:20 | 53.13267 | 15.77676 | 14529 ft | 302 kts | 326° |
| 2026-04-29 17:21 | 53.14836 | 15.75369 | 14064 ft | 301 kts | 326° |
| 2026-04-29 17:21 | 53.16392 | 15.73080 | 13607 ft | 300 kts | 326° |
| 2026-04-29 17:21 | 53.17931 | 15.70812 | 13161 ft | 300 kts | 325° |
| 2026-04-29 17:21 | 53.19501 | 15.68495 | 12696 ft | 299 kts | 325° |
| 2026-04-29 17:22 | 53.21048 | 15.66210 | 12237 ft | 299 kts | 325° |
| 2026-04-29 17:22 | 53.22585 | 15.63938 | 11789 ft | 298 kts | 324° |
| 2026-04-29 17:22 | 53.24139 | 15.61638 | 11331 ft | 298 kts | 324° |
| 2026-04-29 17:22 | 53.25676 | 15.59359 | 10917 ft | 295 kts | 324° |
| 2026-04-29 17:23 | 53.27182 | 15.57119 | 10709 ft | 286 kts | 324° |
| 2026-04-29 17:23 | 53.28621 | 15.54975 | 10607 ft | 274 kts | 324° |
| 2026-04-29 17:23 | 53.30000 | 15.52861 | 10460 ft | 267 kts | 321° |
| 2026-04-29 17:23 | 53.31181 | 15.50496 | 10208 ft | 265 kts | 312° |
| 2026-04-29 17:24 | 53.32207 | 15.47955 | 9801 ft | 267 kts | 309° |
| 2026-04-29 17:24 | 53.33204 | 15.45354 | 9422 ft | 266 kts | 309° |
| 2026-04-29 17:24 | 53.34220 | 15.42746 | 9041 ft | 264 kts | 309° |
| 2026-04-29 17:24 | 53.35221 | 15.40235 | 8676 ft | 262 kts | 309° |
| 2026-04-29 17:25 | 53.36242 | 15.37701 | 8302 ft | 261 kts | 309° |
| 2026-04-29 17:25 | 53.37249 | 15.35212 | 7931 ft | 260 kts | 310° |
| 2026-04-29 17:25 | 53.38251 | 15.32729 | 7469 ft | 259 kts | 309° |
| 2026-04-29 17:25 | 53.39263 | 15.30214 | 6858 ft | 261 kts | 308° |
| 2026-04-29 17:26 | 53.40284 | 15.27687 | 6164 ft | 266 kts | 308° |
| 2026-04-29 17:26 | 53.41302 | 15.25153 | 5629 ft | 263 kts | 307° |
| 2026-04-29 17:26 | 53.42317 | 15.22619 | 5069 ft | 261 kts | 307° |
| 2026-04-29 17:26 | 53.43309 | 15.20142 | 4524 ft | 258 kts | 307° |
| 2026-04-29 17:27 | 53.44296 | 15.17684 | 4205 ft | 247 kts | 308° |
| 2026-04-29 17:27 | 53.45318 | 15.15459 | 3993 ft | 238 kts | 313° |
| 2026-04-29 17:27 | 53.46398 | 15.13387 | 3647 ft | 235 kts | 315° |
| 2026-04-29 17:27 | 53.47477 | 15.11373 | 3311 ft | 228 kts | 314° |
| 2026-04-29 17:28 | 53.48504 | 15.09409 | 2965 ft | 222 kts | 314° |
| 2026-04-29 17:28 | 53.49483 | 15.07523 | 2656 ft | 204 kts | 314° |
| 2026-04-29 17:28 | 53.50365 | 15.05826 | 2387 ft | 186 kts | 314° |
| 2026-04-29 17:28 | 53.51183 | 15.04261 | 2141 ft | 171 kts | 314° |
| 2026-04-29 17:29 | 53.51937 | 15.02806 | 1913 ft | 159 kts | 314° |
| 2026-04-29 17:29 | 53.52630 | 15.01472 | 1715 ft | 147 kts | 314° |
| 2026-04-29 17:29 | 53.53269 | 15.00240 | 1509 ft | 135 kts | 315° |
| 2026-04-29 17:29 | 53.53673 | 14.99469 | 1383 ft | 131 kts | 314° |
| 2026-04-29 17:30 | 53.54475 | 14.97929 | 1152 ft | 131 kts | 314° |
| 2026-04-29 17:30 | 53.55071 | 14.96790 | 1002 ft | 129 kts | 313° |
| 2026-04-29 17:30 | 53.55658 | 14.95652 | 822 ft | 131 kts | 314° |
| 2026-04-29 17:30 | 53.56266 | 14.94487 | 624 ft | 131 kts | 313° |
| 2026-04-29 17:31 | 53.56854 | 14.93349 | 436 ft | 129 kts | 313° |
| 2026-04-29 17:31 | 53.57440 | 14.92216 | 275 ft | 129 kts | 313° |
| 2026-04-29 17:31 | 53.58022 | 14.91091 | 143 ft | 124 kts | 312° |
| 2026-04-29 17:31 | 53.58432 | 14.90304 | 133 ft | 51 kts | 310° |
| 2026-04-29 17:32 | 53.58577 | 14.90014 | 130 ft | 29 kts | 310° |
| 2026-04-29 17:32 | 53.58709 | 14.89757 | 128 ft | 29 kts | 310° |
| 2026-04-29 17:32 | 53.58842 | 14.89499 | 126 ft | 29 kts | 310° |
| 2026-04-29 17:32 | 53.58971 | 14.89249 | 121 ft | 24 kts | 311° |
| 2026-04-29 17:33 | 53.59053 | 14.89118 | 120 ft | 12 kts | 353° |
| 2026-04-29 17:33 | 53.59121 | 14.89181 | 123 ft | 10 kts | 41° |
| 2026-04-29 17:33 | 53.59175 | 14.89245 | 123 ft | 8 kts | 357° |
| 2026-04-29 17:33 | 53.59228 | 14.89245 | 124 ft | 7 kts | 33° |
| 2026-04-29 17:34 | 53.59262 | 14.89290 | 126 ft | 4 kts | 41° |
| 2026-04-29 17:34 | 53.59278 | 14.89313 | 127 ft | 1 kts | 41° |
| 2026-04-29 17:34 | 53.59283 | 14.89320 | 127 ft | 0 kts | 40° |